createdAt,value
2018-10-19T00:01:17.604Z,56208.47
2018-10-19T00:03:46.686Z,56205.38
2018-10-19T00:06:15.822Z,56219.78
2018-10-19T00:08:44.906Z,56229.04
2018-10-19T00:11:14.049Z,56199.21
2018-10-19T00:13:43.119Z,56219.78
2018-10-19T00:16:12.162Z,56199.21
2018-10-19T00:18:41.316Z,56213.61
2018-10-19T00:21:10.466Z,56195.10
2018-10-19T00:23:39.501Z,56199.21
2018-10-19T00:26:08.590Z,56219.78
2018-10-19T00:28:37.724Z,56231.09
2018-10-19T00:31:06.786Z,56184.82
2018-10-19T00:33:36.089Z,56214.64
2018-10-19T00:36:05.555Z,56223.89
2018-10-19T00:38:34.625Z,56199.21
2018-10-19T00:41:03.729Z,56216.70
2018-10-19T00:43:32.788Z,56228.01
2018-10-19T00:46:01.863Z,56235.20
2018-10-19T00:48:30.965Z,56233.15
2018-10-19T00:51:00.081Z,56218.75
2018-10-19T00:53:29.197Z,56238.29
2018-10-19T00:55:58.268Z,56199.21
2018-10-19T00:58:27.477Z,56228.01
2018-10-19T01:00:56.545Z,56240.34
2018-10-19T01:03:25.670Z,56214.64
2018-10-19T01:05:54.735Z,56211.55
2018-10-19T01:08:23.835Z,56212.58
2018-10-19T01:10:52.951Z,56199.21
2018-10-19T01:13:22.041Z,56225.95
2018-10-19T01:15:51.201Z,56221.84
2018-10-19T01:18:20.245Z,56225.95
2018-10-19T01:20:49.341Z,56223.89
2018-10-19T01:23:18.458Z,56219.78
2018-10-19T01:25:47.558Z,56185.85
2018-10-19T01:28:16.754Z,56228.01
2018-10-19T01:30:45.846Z,56216.70
2018-10-19T01:33:15.039Z,56212.58
2018-10-19T01:35:44.034Z,56208.47
2018-10-19T01:38:13.124Z,56218.75
2018-10-19T01:40:42.208Z,56249.60
2018-10-19T01:43:11.293Z,56247.54
2018-10-19T01:45:44.439Z,56236.23
2018-10-19T01:48:13.545Z,56232.12
2018-10-19T01:50:42.594Z,56221.84
2018-10-19T01:53:11.702Z,56213.61
2018-10-19T01:55:40.769Z,56233.15
2018-10-19T01:58:09.864Z,56229.04
2018-10-19T02:00:38.964Z,56209.50
2018-10-19T02:03:08.189Z,56225.95
2018-10-19T02:05:37.637Z,56236.23
2018-10-19T02:08:07.539Z,56280.45
2018-10-19T02:10:36.644Z,56241.37
2018-10-19T02:13:06.453Z,56245.49
2018-10-19T02:15:35.681Z,56267.08
2018-10-19T02:18:05.042Z,56254.74
2018-10-19T02:20:34.137Z,56282.50
2018-10-19T02:23:03.274Z,56258.86
2018-10-19T02:25:32.453Z,56244.46
2018-10-19T02:28:01.527Z,56246.52
2018-10-19T02:30:30.640Z,56230.06
2018-10-19T02:32:59.809Z,56242.40
2018-10-19T02:35:28.809Z,56254.74
2018-10-19T02:37:57.918Z,56273.25
2018-10-19T02:40:27.077Z,56248.57
2018-10-19T02:42:56.141Z,56269.14
2018-10-19T02:45:34.438Z,56258.86
2018-10-19T02:48:04.350Z,56260.91
2018-10-19T02:50:33.436Z,56243.43
2018-10-19T02:53:02.527Z,56234.18
2018-10-19T02:55:31.603Z,56253.71
2018-10-19T02:58:00.661Z,56244.46
2018-10-19T03:00:29.731Z,56242.40
2018-10-19T03:02:58.841Z,56252.69
2018-10-19T03:05:27.945Z,56268.11
2018-10-19T03:07:57.058Z,56271.20
2018-10-19T03:10:26.129Z,56249.60
2018-10-19T03:12:55.213Z,56229.04
2018-10-19T03:15:24.363Z,56256.80
2018-10-19T03:17:53.489Z,56306.16
2018-10-19T03:20:22.587Z,56225.95
2018-10-19T03:22:51.681Z,56253.71
2018-10-19T03:25:20.824Z,56255.77
2018-10-19T03:27:49.908Z,56250.63
2018-10-19T03:30:19.061Z,56233.15
2018-10-19T03:32:48.107Z,56252.69
2018-10-19T03:35:17.253Z,56242.40
2018-10-19T03:37:46.258Z,56268.11
2018-10-19T03:40:15.382Z,56270.17
2018-10-19T03:42:44.498Z,56256.80
2018-10-19T03:45:13.743Z,56290.73
2018-10-19T03:47:42.699Z,56238.29
2018-10-19T03:50:11.820Z,56272.22
2018-10-19T03:52:40.946Z,56265.03
2018-10-19T03:55:10.021Z,56254.74
2018-10-19T03:57:39.136Z,56277.36
2018-10-19T04:00:08.255Z,56265.03
2018-10-19T04:02:37.409Z,56267.08
2018-10-19T04:05:06.693Z,56316.44
2018-10-19T04:07:35.801Z,56288.68
2018-10-19T04:10:05.393Z,56281.48
2018-10-19T04:12:34.465Z,56275.31
2018-10-19T04:15:03.730Z,56280.45
2018-10-19T04:17:32.769Z,56240.34
2018-10-19T04:20:02.055Z,56266.05
2018-10-19T04:22:31.120Z,56242.40
2018-10-19T04:25:00.201Z,56246.52
2018-10-19T04:27:29.330Z,56265.03
2018-10-19T04:29:58.437Z,56269.14
2018-10-19T04:32:27.523Z,56288.68
2018-10-19T04:34:56.681Z,56297.93
2018-10-19T04:37:25.719Z,56260.91
2018-10-19T04:39:54.801Z,56267.08
2018-10-19T04:42:23.970Z,56262.97
2018-10-19T04:44:53.091Z,56288.68
2018-10-19T04:47:22.185Z,56235.20
2018-10-19T04:49:51.328Z,56245.49
2018-10-19T04:52:20.454Z,56256.80
2018-10-19T04:54:49.548Z,56304.10
2018-10-19T04:57:18.828Z,56246.52
2018-10-19T04:59:47.813Z,56254.74
2018-10-19T05:02:16.965Z,56256.80
2018-10-19T05:04:46.130Z,56264.00
2018-10-19T05:07:15.181Z,56267.08
2018-10-19T05:09:44.359Z,56262.97
2018-10-19T05:12:13.460Z,56315.41
2018-10-19T05:14:42.545Z,56304.10
2018-10-19T05:17:11.717Z,56291.76
2018-10-19T05:19:40.760Z,56268.11
2018-10-19T05:22:09.859Z,56279.42
2018-10-19T05:24:39.054Z,56272.22
2018-10-19T05:27:08.125Z,56277.36
2018-10-19T05:29:37.213Z,56267.08
2018-10-19T05:32:06.336Z,56275.31
2018-10-19T05:34:35.453Z,56275.31
2018-10-19T05:37:04.901Z,56234.18
2018-10-19T05:39:34.024Z,56270.17
2018-10-19T05:42:03.112Z,56294.85
2018-10-19T05:44:32.230Z,56267.08
2018-10-19T05:47:01.360Z,56233.15
2018-10-19T05:49:30.431Z,56286.62
2018-10-19T05:52:06.185Z,56281.48
2018-10-19T05:54:35.226Z,56274.28
2018-10-19T05:57:04.560Z,56273.25
2018-10-19T05:59:33.835Z,56279.42
2018-10-19T06:02:02.984Z,56250.63
2018-10-19T06:04:32.044Z,56285.59
2018-10-19T06:07:01.157Z,56254.74
2018-10-19T06:09:30.240Z,56275.31
2018-10-19T06:11:59.307Z,56267.08
2018-10-19T06:14:28.429Z,56235.20
2018-10-19T06:16:57.528Z,56259.88
2018-10-19T06:19:26.731Z,56279.42
2018-10-19T06:21:55.824Z,56256.80
2018-10-19T06:24:24.912Z,56247.54
2018-10-19T06:26:54.033Z,56299.99
2018-10-19T06:29:23.129Z,56262.97
2018-10-19T06:31:52.284Z,56240.34
2018-10-19T06:34:21.354Z,56246.52
2018-10-19T06:36:50.471Z,56210.52
2018-10-19T06:39:19.589Z,56230.06
2018-10-19T06:41:48.724Z,56257.83
2018-10-19T06:44:17.804Z,56247.54
2018-10-19T06:46:46.984Z,56256.80
2018-10-19T06:49:16.038Z,56272.22
2018-10-19T06:51:45.152Z,56235.20
2018-10-19T06:54:14.245Z,56233.15
2018-10-19T06:56:43.440Z,56264.00
2018-10-19T06:59:12.622Z,56218.75
2018-10-19T07:01:41.640Z,56210.52
2018-10-19T07:04:10.728Z,56209.50
2018-10-19T07:06:39.862Z,56207.44
2018-10-19T07:09:09.100Z,56194.07
2018-10-19T07:11:38.168Z,56214.64
2018-10-19T07:14:07.328Z,56203.33
2018-10-19T07:16:36.391Z,56213.61
2018-10-19T07:19:05.823Z,56202.30
2018-10-19T07:21:34.901Z,56202.30
2018-10-19T07:24:03.986Z,56188.93
2018-10-19T07:26:33.148Z,56228.01
2018-10-19T07:29:02.317Z,56213.61
2018-10-19T07:31:31.357Z,56193.05
2018-10-19T07:34:00.481Z,56183.79
2018-10-19T07:36:29.590Z,56193.05
2018-10-19T07:38:58.666Z,56183.79
2018-10-19T07:41:27.838Z,56197.16
2018-10-19T07:43:56.962Z,56188.93
2018-10-19T07:46:26.064Z,56231.09
2018-10-19T07:48:55.151Z,56186.87
2018-10-19T07:51:24.274Z,56175.56
2018-10-19T07:53:53.360Z,56180.71
2018-10-19T07:56:22.863Z,56179.68
2018-10-19T07:58:51.943Z,56195.10
2018-10-19T08:01:21.055Z,56179.68
2018-10-19T08:03:50.141Z,56197.16
2018-10-19T08:06:19.230Z,56170.42
2018-10-19T08:08:48.331Z,56201.27
2018-10-19T08:11:17.532Z,56168.37
2018-10-19T08:13:46.564Z,56155.00
2018-10-19T08:16:15.671Z,56143.69
2018-10-19T08:18:44.793Z,56138.55
2018-10-19T08:21:14.013Z,56146.77
2018-10-19T08:23:43.033Z,56169.39
2018-10-19T08:26:12.206Z,56142.66
2018-10-19T08:28:41.231Z,56150.89
2018-10-19T08:31:10.336Z,56135.46
2018-10-19T08:33:39.430Z,56123.12
2018-10-19T08:36:08.526Z,56166.31
2018-10-19T08:38:37.637Z,56136.49
2018-10-19T08:41:06.769Z,56151.91
2018-10-19T08:43:35.864Z,56162.20
2018-10-19T08:46:10.326Z,56181.73
2018-10-19T08:48:39.469Z,56182.76
2018-10-19T08:51:09.042Z,56164.25
2018-10-19T08:53:38.545Z,56134.43
2018-10-19T08:56:07.535Z,56157.05
2018-10-19T08:58:36.643Z,56135.46
2018-10-19T09:01:05.950Z,56076.85
2018-10-19T09:03:35.096Z,55993.57
2018-10-19T09:06:04.220Z,55990.48
2018-10-19T09:08:33.309Z,55979.17
2018-10-19T09:11:02.481Z,55977.11
2018-10-19T09:13:31.554Z,55979.17
2018-10-19T09:16:00.683Z,55962.72
2018-10-19T09:18:29.759Z,56008.99
2018-10-19T09:20:58.916Z,55983.28
2018-10-19T09:23:27.958Z,56015.16
2018-10-19T09:25:57.053Z,55964.78
2018-10-19T09:28:26.242Z,55997.68
2018-10-19T09:30:55.445Z,55978.14
2018-10-19T09:33:24.547Z,56021.33
2018-10-19T09:35:53.738Z,56018.24
2018-10-19T09:38:22.752Z,56027.50
2018-10-19T09:40:51.881Z,56025.44
2018-10-19T09:43:20.973Z,56025.44
2018-10-19T09:45:50.105Z,56046.00
2018-10-19T09:48:19.401Z,56082.00
2018-10-19T09:50:48.523Z,56091.25
2018-10-19T09:53:17.621Z,56102.56
2018-10-19T09:55:46.687Z,56101.53
2018-10-19T09:58:15.805Z,56110.79
2018-10-19T10:00:50.031Z,56106.67
2018-10-19T10:03:19.159Z,56142.66
2018-10-19T10:05:48.251Z,56134.43
2018-10-19T10:08:17.366Z,56113.87
2018-10-19T10:10:46.603Z,56125.18
2018-10-19T10:13:15.795Z,56107.70
2018-10-19T10:15:44.899Z,56140.61
2018-10-19T10:18:14.150Z,56173.51
2018-10-19T10:20:43.270Z,56131.35
2018-10-19T10:23:12.980Z,56147.80
2018-10-19T10:25:42.042Z,56147.80
2018-10-19T10:28:11.222Z,56153.97
2018-10-19T10:30:40.328Z,56146.77
2018-10-19T10:33:09.433Z,56179.68
2018-10-19T10:35:38.665Z,56135.46
2018-10-19T10:38:07.961Z,56155.00
2018-10-19T10:40:37.129Z,56148.83
2018-10-19T10:43:06.656Z,56153.97
2018-10-19T10:45:35.745Z,56140.61
2018-10-19T10:48:04.973Z,56176.59
2018-10-19T10:50:34.075Z,56133.41
2018-10-19T10:53:03.145Z,56140.61
2018-10-19T10:55:32.256Z,56136.49
2018-10-19T10:58:01.383Z,56141.63
2018-10-19T11:00:30.445Z,56153.97
2018-10-19T11:02:59.527Z,56133.41
2018-10-19T11:05:28.670Z,56142.66
2018-10-19T11:07:57.746Z,56174.54
2018-10-19T11:10:27.101Z,56131.35
2018-10-19T11:12:56.228Z,56158.09
2018-10-19T11:15:25.337Z,56166.31
2018-10-19T11:17:54.418Z,56135.46
2018-10-19T11:20:23.523Z,56153.97
2018-10-19T11:22:52.653Z,56131.35
2018-10-19T11:25:21.724Z,56138.55
2018-10-19T11:27:50.833Z,56135.46
2018-10-19T11:30:19.922Z,56100.50
2018-10-19T11:32:49.032Z,56108.73
2018-10-19T11:35:18.167Z,56098.45
2018-10-19T11:37:47.324Z,56092.28
2018-10-19T11:40:29.999Z,56090.22
2018-10-19T11:42:59.156Z,56144.71
2018-10-19T11:45:29.622Z,56137.52
2018-10-19T11:47:58.719Z,56090.22
2018-10-19T11:50:27.811Z,56138.55
2018-10-19T11:52:56.936Z,56151.91
2018-10-19T11:55:26.057Z,56092.28
2018-10-19T11:57:55.159Z,56129.29
2018-10-19T12:00:24.257Z,56079.94
2018-10-19T12:02:53.346Z,56116.95
2018-10-19T12:05:22.470Z,56101.53
2018-10-19T12:07:51.547Z,56092.28
2018-10-19T12:10:20.728Z,56124.15
2018-10-19T12:12:49.832Z,56110.79
2018-10-19T12:15:19.071Z,56123.12
2018-10-19T12:17:48.170Z,56099.47
2018-10-19T12:20:18.389Z,56069.65
2018-10-19T12:22:47.523Z,56090.22
2018-10-19T12:25:17.210Z,56110.79
2018-10-19T12:27:46.336Z,56100.50
2018-10-19T12:30:15.447Z,56110.79
2018-10-19T12:32:44.573Z,56091.25
2018-10-19T12:35:14.630Z,56062.46
2018-10-19T12:37:43.717Z,56094.33
2018-10-19T12:40:13.101Z,56077.88
2018-10-19T12:42:42.197Z,56093.30
2018-10-19T12:46:39.056Z,56085.08
2018-10-19T12:49:08.686Z,56071.71
2018-10-19T12:51:38.057Z,56077.88
2018-10-19T12:54:07.422Z,56099.47
2018-10-19T12:56:36.467Z,56091.25
2018-10-19T12:59:06.042Z,56062.46
2018-10-19T13:01:35.378Z,56055.26
2018-10-19T13:04:04.785Z,56085.08
2018-10-19T13:06:33.887Z,56061.43
2018-10-19T13:09:03.348Z,56077.88
2018-10-19T13:11:32.401Z,56061.43
2018-10-19T13:14:01.481Z,56047.03
2018-10-19T13:16:30.578Z,56050.12
2018-10-19T13:18:59.666Z,56067.60
2018-10-19T13:21:28.751Z,56034.70
2018-10-19T13:23:57.845Z,56059.37
2018-10-19T13:26:26.981Z,56059.37
2018-10-19T13:28:56.345Z,56086.11
2018-10-19T13:31:25.543Z,56046.00
2018-10-19T13:33:55.215Z,56048.06
2018-10-19T13:36:24.843Z,56064.51
2018-10-19T13:38:54.258Z,56068.62
2018-10-19T13:41:23.344Z,56051.14
2018-10-19T13:43:52.471Z,56068.62
2018-10-19T13:46:21.557Z,56077.88
2018-10-19T13:48:50.643Z,56084.05
2018-10-19T13:51:19.739Z,56069.65
2018-10-19T13:53:48.850Z,56057.32
2018-10-19T13:56:17.943Z,56077.88
2018-10-19T13:58:47.013Z,56063.48
2018-10-19T14:01:16.108Z,56085.08
2018-10-19T14:03:45.220Z,56053.20
2018-10-19T14:06:14.314Z,56022.36
2018-10-19T14:08:43.398Z,56077.88
2018-10-19T14:11:12.593Z,56068.62
2018-10-19T14:13:41.628Z,56069.65
2018-10-19T14:16:10.695Z,56044.98
2018-10-19T14:18:39.801Z,56075.82
2018-10-19T14:21:08.921Z,56078.91
2018-10-19T14:23:37.917Z,56042.92
2018-10-19T14:26:06.994Z,56051.14
2018-10-19T14:28:36.093Z,56057.32
2018-10-19T14:31:05.219Z,56107.70
2018-10-19T14:33:34.425Z,56084.05
2018-10-19T14:36:03.393Z,56053.20
2018-10-19T14:38:32.529Z,56082.00
2018-10-19T14:41:01.681Z,56066.57
2018-10-19T14:43:30.873Z,56099.47
2018-10-19T14:46:00.056Z,56058.34
2018-10-19T14:48:29.116Z,56063.48
2018-10-19T14:50:58.320Z,56059.37
2018-10-19T14:53:27.340Z,56070.68
2018-10-19T14:55:56.451Z,56088.16
2018-10-19T14:58:25.562Z,56078.91
2018-10-19T15:00:54.635Z,56096.39
2018-10-19T15:03:23.782Z,56104.62
2018-10-19T15:05:52.863Z,56078.91
2018-10-19T15:08:21.933Z,56087.14
2018-10-19T15:10:51.153Z,56078.91
2018-10-19T15:13:20.195Z,56093.30
2018-10-19T15:15:49.300Z,56070.68
2018-10-19T15:18:18.454Z,56100.50
2018-10-19T15:20:47.514Z,56104.62
2018-10-19T15:23:16.609Z,56086.11
2018-10-19T15:25:45.701Z,56106.67
2018-10-19T15:28:14.775Z,56120.04
2018-10-19T15:30:43.901Z,56104.62
2018-10-19T15:33:13.214Z,56103.59
2018-10-19T15:35:42.233Z,56115.93
2018-10-19T15:38:11.286Z,56074.80
2018-10-19T15:40:40.361Z,56110.79
2018-10-19T15:43:09.464Z,56139.57
2018-10-19T15:45:38.570Z,56123.12
2018-10-19T15:48:07.659Z,56129.29
2018-10-19T15:50:37.317Z,56123.12
2018-10-19T15:53:06.693Z,56135.46
2018-10-19T15:55:35.808Z,56131.35
2018-10-19T15:58:04.880Z,56119.01
2018-10-19T16:00:34.095Z,56147.80
2018-10-19T16:03:03.131Z,56127.23
2018-10-19T16:05:32.262Z,56127.23
2018-10-19T16:08:01.409Z,56130.32
2018-10-19T16:10:30.518Z,56126.21
2018-10-19T16:12:59.775Z,56131.35
2018-10-19T16:15:28.889Z,56102.56
2018-10-19T16:17:57.991Z,56131.35
2018-10-19T16:20:27.046Z,56122.09
2018-10-19T16:22:56.203Z,56106.67
2018-10-19T16:25:25.278Z,56129.29
2018-10-19T16:27:54.362Z,56141.63
2018-10-19T16:30:23.477Z,56158.09
2018-10-19T16:32:52.545Z,56141.63
2018-10-19T16:35:21.665Z,56164.25
2018-10-19T16:37:50.733Z,56110.79
2018-10-19T16:40:19.813Z,56130.32
2018-10-19T16:42:48.928Z,56144.71
2018-10-19T16:45:18.075Z,56134.43
2018-10-19T16:47:47.160Z,56119.01
2018-10-19T16:50:16.281Z,56125.18
2018-10-19T16:52:45.433Z,56143.69
2018-10-19T16:55:14.524Z,56145.75
2018-10-19T16:57:43.650Z,56158.09
2018-10-19T17:00:12.795Z,56165.28
2018-10-19T17:02:41.818Z,56148.83
2018-10-19T17:05:11.006Z,56113.87
2018-10-19T17:07:40.065Z,56149.86
2018-10-19T17:10:09.423Z,56149.86
2018-10-19T17:12:38.654Z,56152.94
2018-10-19T17:15:07.772Z,56156.03
2018-10-19T17:17:36.861Z,56137.52
2018-10-19T17:20:06.498Z,56175.56
2018-10-19T17:22:35.835Z,56151.91
2018-10-19T17:25:06.757Z,56140.61
2018-10-19T17:27:35.950Z,56153.97
2018-10-19T17:30:07.034Z,56166.31
2018-10-19T17:32:36.351Z,56170.42
2018-10-19T17:35:05.833Z,56158.09
2018-10-19T17:37:36.018Z,56181.73
2018-10-19T17:40:06.517Z,56145.75
2018-10-19T17:42:35.654Z,56173.51
2018-10-19T17:45:05.281Z,56149.86
2018-10-19T17:47:34.343Z,56158.09
2018-10-19T17:50:03.463Z,56160.14
2018-10-19T17:52:32.578Z,56159.11
2018-10-19T17:55:01.669Z,56208.47
2018-10-19T17:57:30.731Z,56111.81
2018-10-19T17:59:59.839Z,56165.28
2018-10-19T18:02:28.921Z,56155.00
2018-10-19T18:05:01.797Z,56156.03
2018-10-19T18:07:34.085Z,56172.48
2018-10-19T18:10:08.167Z,56160.14
2018-10-19T18:12:37.369Z,56176.59
2018-10-19T18:15:12.856Z,56190.99
2018-10-19T18:17:49.192Z,56176.59
2018-10-19T18:20:20.825Z,56204.36
2018-10-19T18:22:54.649Z,56196.13
2018-10-19T18:25:23.822Z,56160.14
2018-10-19T18:27:52.959Z,56167.34
2018-10-19T18:30:22.022Z,56135.46
2018-10-19T18:32:51.102Z,56187.90
2018-10-19T18:35:21.393Z,56182.76
2018-10-19T18:37:50.483Z,56180.71
2018-10-19T18:40:19.553Z,56162.20
2018-10-19T18:42:48.673Z,56158.09
2018-10-19T18:45:17.772Z,56153.97
2018-10-19T18:47:46.865Z,56156.03
2018-10-19T18:50:16.068Z,56186.87
2018-10-19T18:52:45.165Z,56174.54
2018-10-19T18:55:14.329Z,56202.30
2018-10-19T18:57:43.474Z,56186.87
2018-10-19T19:00:12.977Z,56158.09
2018-10-19T19:02:42.255Z,56144.71
2018-10-19T19:05:12.372Z,56207.44
2018-10-19T19:07:41.499Z,56157.05
2018-10-19T19:10:12.798Z,56186.87
2018-10-19T19:12:41.998Z,56153.97
2018-10-19T19:15:11.942Z,56199.21
2018-10-19T19:17:41.241Z,56173.51
2018-10-19T19:20:15.602Z,56181.73
2018-10-19T19:22:44.701Z,56178.65
2018-10-19T19:25:19.182Z,56218.75
2018-10-19T19:27:48.313Z,56186.87
2018-10-19T19:30:17.489Z,56159.11
2018-10-19T19:32:51.936Z,56194.07
2018-10-19T19:35:21.084Z,56195.10
2018-10-19T19:37:50.405Z,56201.27
2018-10-19T19:40:19.560Z,56174.54
2018-10-19T19:42:54.627Z,56208.47
2018-10-19T19:45:23.802Z,56184.82
2018-10-19T19:47:58.067Z,56189.96
2018-10-19T19:50:27.158Z,56181.73
2018-10-19T19:52:56.272Z,56178.65
2018-10-19T19:55:25.551Z,56203.33
2018-10-19T19:57:54.722Z,56184.82
2018-10-19T20:00:23.818Z,56204.36
2018-10-19T20:02:52.951Z,56188.93
2018-10-19T20:05:22.084Z,56149.86
2018-10-19T20:07:51.173Z,56155.00
2018-10-19T20:10:20.280Z,56164.25
2018-10-19T20:12:49.361Z,56203.33
2018-10-19T20:15:18.497Z,56176.59
2018-10-19T20:17:47.677Z,56199.21
2018-10-19T20:20:16.866Z,56171.45
2018-10-19T20:22:45.873Z,56200.24
2018-10-19T20:25:14.951Z,56208.47
2018-10-19T20:27:44.093Z,56177.62
2018-10-19T20:30:13.969Z,56184.82
2018-10-19T20:32:43.189Z,56146.77
2018-10-19T20:35:12.272Z,56198.19
2018-10-19T20:37:41.453Z,56186.87
2018-10-19T20:40:10.563Z,56207.44
2018-10-19T20:42:39.650Z,56166.31
2018-10-19T20:45:08.793Z,56223.89
2018-10-19T20:47:37.908Z,56176.59
2018-10-19T20:50:06.999Z,56176.59
2018-10-19T20:52:36.094Z,56163.23
2018-10-19T20:55:05.542Z,56201.27
2018-10-19T20:57:34.650Z,56214.64
2018-10-19T21:00:03.714Z,56188.93
2018-10-19T21:02:32.803Z,56176.59
2018-10-19T21:05:01.948Z,56192.02
2018-10-19T21:07:31.022Z,56204.36
2018-10-19T21:10:01.855Z,56196.13
2018-10-19T21:12:30.913Z,56187.90
2018-10-19T21:14:59.989Z,56183.79
2018-10-19T21:17:29.053Z,56185.85
2018-10-19T21:19:58.203Z,56197.16
2018-10-19T21:22:27.260Z,56170.42
2018-10-19T21:24:56.319Z,56205.38
2018-10-19T21:27:25.399Z,56176.59
2018-10-19T21:29:54.553Z,56197.16
2018-10-19T21:32:23.629Z,56218.75
2018-10-19T21:34:52.939Z,56172.48
2018-10-19T21:37:22.009Z,56201.27
2018-10-19T21:39:51.133Z,56197.16
2018-10-19T21:42:20.205Z,56162.20
2018-10-19T21:44:49.291Z,56186.87
2018-10-19T21:47:18.448Z,56208.47
2018-10-19T21:49:47.561Z,56182.76
2018-10-19T21:52:16.684Z,56190.99
2018-10-19T21:54:45.783Z,56171.45
2018-10-19T21:57:14.882Z,56170.42
2018-10-19T21:59:44.008Z,56198.19
2018-10-19T22:02:13.158Z,56183.79
2018-10-19T22:04:42.362Z,56210.52
2018-10-19T22:07:11.574Z,56187.90
2018-10-19T22:09:40.631Z,56186.87
2018-10-19T22:12:09.749Z,56188.93
2018-10-19T22:14:38.845Z,56193.05
2018-10-19T22:17:07.953Z,56186.87
2018-10-19T22:19:37.143Z,56197.16
2018-10-19T22:22:06.586Z,56219.78
2018-10-19T22:24:35.649Z,56217.72
2018-10-19T22:27:04.729Z,56197.16
2018-10-19T22:29:33.823Z,56161.17
2018-10-19T22:32:02.917Z,56240.34
2018-10-19T22:34:32.042Z,56225.95
2018-10-19T22:37:01.154Z,56210.52
2018-10-19T22:39:30.263Z,56180.71
2018-10-19T22:41:59.409Z,56223.89
2018-10-19T22:44:28.523Z,56207.44
2018-10-19T22:46:57.808Z,56206.41
2018-10-19T22:49:27.007Z,56195.10
2018-10-19T22:51:56.110Z,56162.20
2018-10-19T22:54:25.220Z,56218.75
2018-10-19T22:56:54.340Z,56206.41
2018-10-19T22:59:23.477Z,56179.68
2018-10-19T23:01:52.689Z,56201.27
2018-10-19T23:04:21.784Z,56226.98
2018-10-19T23:06:50.893Z,56192.02
2018-10-19T23:09:20.013Z,56186.87
2018-10-19T23:11:49.128Z,56190.99
2018-10-19T23:14:18.246Z,56205.38
2018-10-19T23:16:47.355Z,56199.21
2018-10-19T23:19:16.651Z,56235.20
2018-10-19T23:21:45.819Z,56216.70
2018-10-19T23:24:14.890Z,56220.81
2018-10-19T23:26:44.027Z,56189.96
2018-10-19T23:29:13.199Z,56213.61
2018-10-19T23:31:42.343Z,56238.29
2018-10-19T23:34:11.308Z,56189.96
2018-10-19T23:36:40.440Z,56159.11
2018-10-19T23:39:11.270Z,56194.07
2018-10-19T23:41:40.990Z,56176.59
2018-10-19T23:44:10.488Z,56201.27
2018-10-19T23:46:39.700Z,56206.41
2018-10-19T23:49:09.210Z,56156.03
2018-10-19T23:51:38.348Z,56228.01
2018-10-19T23:54:07.494Z,56187.90
2018-10-19T23:56:36.683Z,56188.93
2018-10-19T23:59:06.359Z,56202.30
